sensor_id;sensor_type;location;lat;lon;timestamp;temperature;humidity
25092;DHT22;13082;52.374;4.946;2023-03-01T00:01:33;4.60;99.90
25092;DHT22;13082;52.374;4.946;2023-03-01T00:03:59;4.60;99.90
25092;DHT22;13082;52.374;4.946;2023-03-01T00:06:26;4.50;99.90
25092;DHT22;13082;52.374;4.946;2023-03-01T00:08:52;4.60;99.90
25092;DHT22;13082;52.374;4.946;2023-03-01T00:13:46;4.50;99.90
25092;DHT22;13082;52.374;4.946;2023-03-01T00:16:15;4.50;99.90
25092;DHT22;13082;52.374;4.946;2023-03-01T00:18:41;4.40;99.90
25092;DHT22;13082;52.374;4.946;2023-03-01T00:21:07;4.40;99.90
25092;DHT22;13082;52.374;4.946;2023-03-01T00:23:37;4.40;99.90
25092;DHT22;13082;52.374;4.946;2023-03-01T00:26:06;4.40;99.90
25092;DHT22;13082;52.374;4.946;2023-03-01T00:28:32;4.40;99.90
25092;DHT22;13082;52.374;4.946;2023-03-01T00:31:10;4.40;99.90
25092;DHT22;13082;52.374;4.946;2023-03-01T00:33:36;4.30;99.90
25092;DHT22;13082;52.374;4.946;2023-03-01T00:36:03;4.30;99.90
25092;DHT22;13082;52.374;4.946;2023-03-01T00:38:29;4.30;99.90
25092;DHT22;13082;52.374;4.946;2023-03-01T00:40:55;4.30;99.90
25092;DHT22;13082;52.374;4.946;2023-03-01T00:43:20;4.30;99.90
25092;DHT22;13082;52.374;4.946;2023-03-01T00:45:46;4.30;99.90
25092;DHT22;13082;52.374;4.946;2023-03-01T00:48:12;4.20;99.90
25092;DHT22;13082;52.374;4.946;2023-03-01T00:50:37;4.20;99.90
25092;DHT22;13082;52.374;4.946;2023-03-01T00:53:03;4.20;99.90
25092;DHT22;13082;52.374;4.946;2023-03-01T00:55:30;4.20;99.90
25092;DHT22;13082;52.374;4.946;2023-03-01T00:57:56;4.20;99.90
25092;DHT22;13082;52.374;4.946;2023-03-01T01:00:22;4.30;99.90
25092;DHT22;13082;52.374;4.946;2023-03-01T01:02:48;4.40;99.90
25092;DHT22;13082;52.374;4.946;2023-03-01T01:05:13;4.30;99.90
25092;DHT22;13082;52.374;4.946;2023-03-01T01:07:39;4.30;99.90
25092;DHT22;13082;52.374;4.946;2023-03-01T01:10:05;4.20;99.90
25092;DHT22;13082;52.374;4.946;2023-03-01T01:12:32;4.20;99.90
25092;DHT22;13082;52.374;4.946;2023-03-01T01:14:58;4.10;99.90
25092;DHT22;13082;52.374;4.946;2023-03-01T01:17:23;4.10;99.90
25092;DHT22;13082;52.374;4.946;2023-03-01T01:19:49;4.10;99.90
25092;DHT22;13082;52.374;4.946;2023-03-01T01:22:14;4.10;99.90
25092;DHT22;13082;52.374;4.946;2023-03-01T01:24:40;4.10;99.90
25092;DHT22;13082;52.374;4.946;2023-03-01T01:27:06;4.20;99.90
25092;DHT22;13082;52.374;4.946;2023-03-01T01:29:32;4.30;99.90
25092;DHT22;13082;52.374;4.946;2023-03-01T01:31:58;4.40;99.90
25092;DHT22;13082;52.374;4.946;2023-03-01T01:34:24;4.40;99.90
25092;DHT22;13082;52.374;4.946;2023-03-01T01:36:51;4.30;99.90
25092;DHT22;13082;52.374;4.946;2023-03-01T01:39:19;4.30;99.90
25092;DHT22;13082;52.374;4.946;2023-03-01T01:41:45;4.30;99.90
25092;DHT22;13082;52.374;4.946;2023-03-01T01:44:22;4.30;99.90
25092;DHT22;13082;52.374;4.946;2023-03-01T01:47:05;4.30;99.90
25092;DHT22;13082;52.374;4.946;2023-03-01T01:49:53;4.20;99.90
25092;DHT22;13082;52.374;4.946;2023-03-01T01:52:24;4.10;99.90
25092;DHT22;13082;52.374;4.946;2023-03-01T01:54:57;4.00;99.90
25092;DHT22;13082;52.374;4.946;2023-03-01T01:57:34;4.00;99.90
25092;DHT22;13082;52.374;4.946;2023-03-01T02:00:06;4.00;99.90
25092;DHT22;13082;52.374;4.946;2023-03-01T02:02:32;3.90;99.90
25092;DHT22;13082;52.374;4.946;2023-03-01T02:05:14;3.90;99.90
25092;DHT22;13082;52.374;4.946;2023-03-01T02:07:42;3.90;99.90
25092;DHT22;13082;52.374;4.946;2023-03-01T02:10:09;3.80;99.90
25092;DHT22;13082;52.374;4.946;2023-03-01T02:12:36;3.80;99.90
25092;DHT22;13082;52.374;4.946;2023-03-01T02:15:02;3.70;99.90
25092;DHT22;13082;52.374;4.946;2023-03-01T02:17:28;3.70;99.90
25092;DHT22;13082;52.374;4.946;2023-03-01T02:22:45;3.70;99.90
25092;DHT22;13082;52.374;4.946;2023-03-01T02:30:24;3.90;99.90
25092;DHT22;13082;52.374;4.946;2023-03-01T02:32:52;3.90;99.90
25092;DHT22;13082;52.374;4.946;2023-03-01T02:35:20;4.00;99.90
25092;DHT22;13082;52.374;4.946;2023-03-01T02:37:46;4.10;99.90
25092;DHT22;13082;52.374;4.946;2023-03-01T02:40:18;4.00;99.90
25092;DHT22;13082;52.374;4.946;2023-03-01T02:42:53;3.90;99.90
25092;DHT22;13082;52.374;4.946;2023-03-01T02:45:20;3.90;99.90
25092;DHT22;13082;52.374;4.946;2023-03-01T02:47:46;3.80;99.90
25092;DHT22;13082;52.374;4.946;2023-03-01T02:50:43;3.80;99.90
25092;DHT22;13082;52.374;4.946;2023-03-01T02:56:25;3.70;99.90
25092;DHT22;13082;52.374;4.946;2023-03-01T02:58:51;3.70;99.90
25092;DHT22;13082;52.374;4.946;2023-03-01T03:01:18;3.70;99.90
25092;DHT22;13082;52.374;4.946;2023-03-01T03:03:44;3.60;99.90
25092;DHT22;13082;52.374;4.946;2023-03-01T03:06:10;3.60;99.90
25092;DHT22;13082;52.374;4.946;2023-03-01T03:08:35;3.60;99.90
25092;DHT22;13082;52.374;4.946;2023-03-01T03:11:02;3.60;99.90
25092;DHT22;13082;52.374;4.946;2023-03-01T03:13:27;3.60;99.90
25092;DHT22;13082;52.374;4.946;2023-03-01T03:15:55;3.60;99.90
25092;DHT22;13082;52.374;4.946;2023-03-01T03:18:21;3.60;99.90
25092;DHT22;13082;52.374;4.946;2023-03-01T03:20:48;3.60;99.90
25092;DHT22;13082;52.374;4.946;2023-03-01T03:23:18;3.60;99.90
25092;DHT22;13082;52.374;4.946;2023-03-01T03:25:44;3.50;99.90
25092;DHT22;13082;52.374;4.946;2023-03-01T03:28:10;3.50;99.90
25092;DHT22;13082;52.374;4.946;2023-03-01T03:30:38;3.50;99.90
25092;DHT22;13082;52.374;4.946;2023-03-01T03:33:05;3.50;99.90
25092;DHT22;13082;52.374;4.946;2023-03-01T03:35:38;3.50;99.90
25092;DHT22;13082;52.374;4.946;2023-03-01T03:38:07;3.50;99.90
25092;DHT22;13082;52.374;4.946;2023-03-01T03:40:43;3.50;99.90
25092;DHT22;13082;52.374;4.946;2023-03-01T03:43:12;3.50;99.90
25092;DHT22;13082;52.374;4.946;2023-03-01T03:45:38;3.50;99.90
25092;DHT22;13082;52.374;4.946;2023-03-01T03:48:06;3.50;99.90
25092;DHT22;13082;52.374;4.946;2023-03-01T03:50:32;3.50;99.90
25092;DHT22;13082;52.374;4.946;2023-03-01T03:53:01;3.60;99.90
25092;DHT22;13082;52.374;4.946;2023-03-01T03:55:27;3.60;99.90
25092;DHT22;13082;52.374;4.946;2023-03-01T03:57:57;3.60;99.90
25092;DHT22;13082;52.374;4.946;2023-03-01T04:00:26;3.60;99.90
25092;DHT22;13082;52.374;4.946;2023-03-01T04:02:52;3.60;99.90
25092;DHT22;13082;52.374;4.946;2023-03-01T04:05:21;3.60;99.90
25092;DHT22;13082;52.374;4.946;2023-03-01T04:07:47;3.50;99.90
25092;DHT22;13082;52.374;4.946;2023-03-01T04:10:15;3.50;99.90
25092;DHT22;13082;52.374;4.946;2023-03-01T04:12:41;3.40;99.90
25092;DHT22;13082;52.374;4.946;2023-03-01T04:15:11;3.40;99.90
25092;DHT22;13082;52.374;4.946;2023-03-01T04:17:44;3.40;99.90
25092;DHT22;13082;52.374;4.946;2023-03-01T04:20:15;3.40;99.90
25092;DHT22;13082;52.374;4.946;2023-03-01T04:22:58;3.40;99.90
25092;DHT22;13082;52.374;4.946;2023-03-01T04:25:24;3.40;99.90
25092;DHT22;13082;52.374;4.946;2023-03-01T04:27:50;3.40;99.90
25092;DHT22;13082;52.374;4.946;2023-03-01T04:30:15;3.40;99.90
25092;DHT22;13082;52.374;4.946;2023-03-01T04:32:41;3.30;99.90
25092;DHT22;13082;52.374;4.946;2023-03-01T04:35:08;3.30;99.90
25092;DHT22;13082;52.374;4.946;2023-03-01T04:37:34;3.30;99.90
25092;DHT22;13082;52.374;4.946;2023-03-01T04:40:01;3.30;99.90
25092;DHT22;13082;52.374;4.946;2023-03-01T04:42:26;3.30;99.90
25092;DHT22;13082;52.374;4.946;2023-03-01T04:44:52;3.30;99.90
25092;DHT22;13082;52.374;4.946;2023-03-01T04:47:18;3.40;99.90
25092;DHT22;13082;52.374;4.946;2023-03-01T04:49:43;3.40;99.90
25092;DHT22;13082;52.374;4.946;2023-03-01T04:52:09;3.40;99.90
25092;DHT22;13082;52.374;4.946;2023-03-01T04:54:35;3.50;99.90
25092;DHT22;13082;52.374;4.946;2023-03-01T04:57:02;3.50;99.90
25092;DHT22;13082;52.374;4.946;2023-03-01T04:59:28;3.50;99.90
25092;DHT22;13082;52.374;4.946;2023-03-01T05:01:55;3.50;99.90
25092;DHT22;13082;52.374;4.946;2023-03-01T05:04:22;3.50;99.90
25092;DHT22;13082;52.374;4.946;2023-03-01T05:06:47;3.50;99.90
25092;DHT22;13082;52.374;4.946;2023-03-01T05:09:13;3.50;99.90
25092;DHT22;13082;52.374;4.946;2023-03-01T05:11:39;3.50;99.90
25092;DHT22;13082;52.374;4.946;2023-03-01T05:14:05;3.50;99.90
25092;DHT22;13082;52.374;4.946;2023-03-01T05:16:32;3.50;99.90
25092;DHT22;13082;52.374;4.946;2023-03-01T05:18:58;3.50;99.90
25092;DHT22;13082;52.374;4.946;2023-03-01T05:21:24;3.50;99.90
25092;DHT22;13082;52.374;4.946;2023-03-01T05:23:50;3.50;99.90
25092;DHT22;13082;52.374;4.946;2023-03-01T05:26:18;3.50;99.90
25092;DHT22;13082;52.374;4.946;2023-03-01T05:28:45;3.50;99.90
25092;DHT22;13082;52.374;4.946;2023-03-01T05:31:10;3.50;99.90
25092;DHT22;13082;52.374;4.946;2023-03-01T05:33:37;3.50;99.90
25092;DHT22;13082;52.374;4.946;2023-03-01T05:36:03;3.50;99.90
25092;DHT22;13082;52.374;4.946;2023-03-01T05:38:29;3.50;99.90
25092;DHT22;13082;52.374;4.946;2023-03-01T05:40:55;3.50;99.90
25092;DHT22;13082;52.374;4.946;2023-03-01T05:43:21;3.40;99.90
25092;DHT22;13082;52.374;4.946;2023-03-01T05:45:46;3.40;99.90
25092;DHT22;13082;52.374;4.946;2023-03-01T05:48:12;3.40;99.90
25092;DHT22;13082;52.374;4.946;2023-03-01T05:50:41;3.40;99.90
25092;DHT22;13082;52.374;4.946;2023-03-01T05:53:10;3.40;99.90
25092;DHT22;13082;52.374;4.946;2023-03-01T05:55:37;3.30;99.90
25092;DHT22;13082;52.374;4.946;2023-03-01T05:58:05;3.30;99.90
25092;DHT22;13082;52.374;4.946;2023-03-01T06:00:32;3.30;99.90
25092;DHT22;13082;52.374;4.946;2023-03-01T06:02:59;3.30;99.90
25092;DHT22;13082;52.374;4.946;2023-03-01T06:05:25;3.40;99.90
25092;DHT22;13082;52.374;4.946;2023-03-01T06:07:51;3.30;99.90
25092;DHT22;13082;52.374;4.946;2023-03-01T06:10:19;3.40;99.90
25092;DHT22;13082;52.374;4.946;2023-03-01T06:12:45;3.40;99.90
25092;DHT22;13082;52.374;4.946;2023-03-01T06:15:15;3.40;99.90
25092;DHT22;13082;52.374;4.946;2023-03-01T06:17:42;3.40;99.90
25092;DHT22;13082;52.374;4.946;2023-03-01T06:20:11;3.50;99.90
25092;DHT22;13082;52.374;4.946;2023-03-01T06:22:38;3.40;99.90
25092;DHT22;13082;52.374;4.946;2023-03-01T06:25:04;3.30;99.90
25092;DHT22;13082;52.374;4.946;2023-03-01T06:27:30;3.30;99.90
25092;DHT22;13082;52.374;4.946;2023-03-01T06:29:55;3.30;99.90
25092;DHT22;13082;52.374;4.946;2023-03-01T06:32:21;3.30;99.90
25092;DHT22;13082;52.374;4.946;2023-03-01T06:34:47;3.30;99.90
25092;DHT22;13082;52.374;4.946;2023-03-01T06:37:12;3.30;99.90
25092;DHT22;13082;52.374;4.946;2023-03-01T06:39:38;3.30;99.90
25092;DHT22;13082;52.374;4.946;2023-03-01T06:42:04;3.30;99.90
25092;DHT22;13082;52.374;4.946;2023-03-01T06:44:30;3.30;99.90
25092;DHT22;13082;52.374;4.946;2023-03-01T06:46:55;3.30;99.90
25092;DHT22;13082;52.374;4.946;2023-03-01T06:49:21;3.30;99.90
25092;DHT22;13082;52.374;4.946;2023-03-01T06:51:47;3.30;99.90
25092;DHT22;13082;52.374;4.946;2023-03-01T06:54:13;3.20;99.90
25092;DHT22;13082;52.374;4.946;2023-03-01T06:56:39;3.10;99.90
25092;DHT22;13082;52.374;4.946;2023-03-01T06:59:04;3.00;99.90
25092;DHT22;13082;52.374;4.946;2023-03-01T07:01:31;2.90;99.90
25092;DHT22;13082;52.374;4.946;2023-03-01T07:03:57;2.90;99.90
25092;DHT22;13082;52.374;4.946;2023-03-01T07:06:23;2.90;99.90
25092;DHT22;13082;52.374;4.946;2023-03-01T07:08:48;2.80;99.90
25092;DHT22;13082;52.374;4.946;2023-03-01T07:11:15;2.70;99.90
25092;DHT22;13082;52.374;4.946;2023-03-01T07:13:40;2.70;99.90
25092;DHT22;13082;52.374;4.946;2023-03-01T07:16:06;2.70;99.90
25092;DHT22;13082;52.374;4.946;2023-03-01T07:18:32;2.70;99.90
25092;DHT22;13082;52.374;4.946;2023-03-01T07:20:58;2.60;99.90
25092;DHT22;13082;52.374;4.946;2023-03-01T07:23:23;2.60;99.90
25092;DHT22;13082;52.374;4.946;2023-03-01T07:25:53;2.60;99.90
25092;DHT22;13082;52.374;4.946;2023-03-01T07:28:19;2.50;99.90
25092;DHT22;13082;52.374;4.946;2023-03-01T07:30:45;2.50;99.90
25092;DHT22;13082;52.374;4.946;2023-03-01T07:33:10;2.40;99.90
25092;DHT22;13082;52.374;4.946;2023-03-01T07:35:36;2.50;99.90
25092;DHT22;13082;52.374;4.946;2023-03-01T07:38:02;2.50;99.90
25092;DHT22;13082;52.374;4.946;2023-03-01T07:40:27;2.60;99.90
25092;DHT22;13082;52.374;4.946;2023-03-01T07:42:57;2.60;99.90
25092;DHT22;13082;52.374;4.946;2023-03-01T07:45:24;2.70;99.90
25092;DHT22;13082;52.374;4.946;2023-03-01T07:47:51;2.70;99.90
25092;DHT22;13082;52.374;4.946;2023-03-01T07:50:17;2.70;99.90
25092;DHT22;13082;52.374;4.946;2023-03-01T07:52:45;2.80;99.90
25092;DHT22;13082;52.374;4.946;2023-03-01T07:55:11;2.80;99.90
25092;DHT22;13082;52.374;4.946;2023-03-01T07:57:37;2.80;99.90
25092;DHT22;13082;52.374;4.946;2023-03-01T08:00:03;2.90;99.90
25092;DHT22;13082;52.374;4.946;2023-03-01T08:02:29;2.90;99.90
25092;DHT22;13082;52.374;4.946;2023-03-01T08:04:54;2.90;99.90
25092;DHT22;13082;52.374;4.946;2023-03-01T08:07:20;2.90;99.90
25092;DHT22;13082;52.374;4.946;2023-03-01T08:09:46;2.90;99.90
25092;DHT22;13082;52.374;4.946;2023-03-01T08:12:11;3.00;99.90
25092;DHT22;13082;52.374;4.946;2023-03-01T08:14:37;3.00;99.90
25092;DHT22;13082;52.374;4.946;2023-03-01T08:17:02;3.00;99.90
25092;DHT22;13082;52.374;4.946;2023-03-01T08:19:28;3.00;99.90
25092;DHT22;13082;52.374;4.946;2023-03-01T08:21:54;3.00;99.90
25092;DHT22;13082;52.374;4.946;2023-03-01T08:24:20;3.10;99.90
25092;DHT22;13082;52.374;4.946;2023-03-01T08:26:46;3.10;99.90
25092;DHT22;13082;52.374;4.946;2023-03-01T08:29:12;3.10;99.90
25092;DHT22;13082;52.374;4.946;2023-03-01T08:31:39;3.10;99.90
25092;DHT22;13082;52.374;4.946;2023-03-01T08:34:08;3.10;99.90
25092;DHT22;13082;52.374;4.946;2023-03-01T08:36:40;3.10;99.90
25092;DHT22;13082;52.374;4.946;2023-03-01T08:39:07;3.10;99.90
25092;DHT22;13082;52.374;4.946;2023-03-01T08:41:33;3.10;99.90
25092;DHT22;13082;52.374;4.946;2023-03-01T08:43:59;3.10;99.90
25092;DHT22;13082;52.374;4.946;2023-03-01T08:46:30;3.20;99.90
25092;DHT22;13082;52.374;4.946;2023-03-01T08:48:56;3.20;99.90
25092;DHT22;13082;52.374;4.946;2023-03-01T08:51:23;3.20;99.90
25092;DHT22;13082;52.374;4.946;2023-03-01T08:53:49;3.20;99.90
25092;DHT22;13082;52.374;4.946;2023-03-01T08:56:16;3.20;99.90
25092;DHT22;13082;52.374;4.946;2023-03-01T08:58:46;3.20;99.90
25092;DHT22;13082;52.374;4.946;2023-03-01T09:01:15;3.20;99.90
25092;DHT22;13082;52.374;4.946;2023-03-01T09:03:42;3.30;99.90
25092;DHT22;13082;52.374;4.946;2023-03-01T09:06:08;3.40;99.90
25092;DHT22;13082;52.374;4.946;2023-03-01T09:08:36;3.50;99.90
25092;DHT22;13082;52.374;4.946;2023-03-01T09:11:03;3.70;99.90
25092;DHT22;13082;52.374;4.946;2023-03-01T09:13:29;3.80;99.90
25092;DHT22;13082;52.374;4.946;2023-03-01T09:15:58;3.80;99.90
25092;DHT22;13082;52.374;4.946;2023-03-01T09:18:24;4.00;99.90
25092;DHT22;13082;52.374;4.946;2023-03-01T09:20:50;4.10;99.90
25092;DHT22;13082;52.374;4.946;2023-03-01T09:23:15;4.10;99.90
25092;DHT22;13082;52.374;4.946;2023-03-01T09:25:41;4.20;99.90
25092;DHT22;13082;52.374;4.946;2023-03-01T09:28:06;4.30;99.90
25092;DHT22;13082;52.374;4.946;2023-03-01T09:30:32;4.40;99.90
25092;DHT22;13082;52.374;4.946;2023-03-01T09:32:58;4.50;99.90
25092;DHT22;13082;52.374;4.946;2023-03-01T09:35:24;4.50;99.90
25092;DHT22;13082;52.374;4.946;2023-03-01T09:37:49;4.60;99.90
25092;DHT22;13082;52.374;4.946;2023-03-01T09:40:24;4.70;99.90
25092;DHT22;13082;52.374;4.946;2023-03-01T09:43:03;4.60;99.90
25092;DHT22;13082;52.374;4.946;2023-03-01T09:45:36;4.50;99.90
25092;DHT22;13082;52.374;4.946;2023-03-01T09:48:08;4.40;99.90
25092;DHT22;13082;52.374;4.946;2023-03-01T09:50:40;4.50;99.90
25092;DHT22;13082;52.374;4.946;2023-03-01T09:53:11;4.60;99.90
25092;DHT22;13082;52.374;4.946;2023-03-01T09:56:00;4.70;99.90
25092;DHT22;13082;52.374;4.946;2023-03-01T10:06:36;4.80;99.90
25092;DHT22;13082;52.374;4.946;2023-03-01T10:09:16;4.90;99.90
25092;DHT22;13082;52.374;4.946;2023-03-01T10:11:47;5.00;99.90
25092;DHT22;13082;52.374;4.946;2023-03-01T10:19:45;5.50;99.90
25092;DHT22;13082;52.374;4.946;2023-03-01T10:22:21;5.60;99.90
25092;DHT22;13082;52.374;4.946;2023-03-01T10:24:47;5.70;99.90
25092;DHT22;13082;52.374;4.946;2023-03-01T10:27:24;5.80;99.90
25092;DHT22;13082;52.374;4.946;2023-03-01T10:30:00;5.90;99.90
25092;DHT22;13082;52.374;4.946;2023-03-01T10:32:30;6.10;99.90
25092;DHT22;13082;52.374;4.946;2023-03-01T10:34:56;6.20;99.90
25092;DHT22;13082;52.374;4.946;2023-03-01T10:37:22;6.30;99.90
25092;DHT22;13082;52.374;4.946;2023-03-01T10:40:07;6.50;99.90
25092;DHT22;13082;52.374;4.946;2023-03-01T10:48:21;7.10;99.90
25092;DHT22;13082;52.374;4.946;2023-03-01T10:53:37;7.40;99.90
25092;DHT22;13082;52.374;4.946;2023-03-01T10:56:11;7.50;99.90
25092;DHT22;13082;52.374;4.946;2023-03-01T10:58:40;7.60;99.90
25092;DHT22;13082;52.374;4.946;2023-03-01T11:03:41;7.80;99.90
25092;DHT22;13082;52.374;4.946;2023-03-01T11:13:53;8.10;99.90
25092;DHT22;13082;52.374;4.946;2023-03-01T11:16:33;8.10;99.90
25092;DHT22;13082;52.374;4.946;2023-03-01T11:19:13;8.20;99.90
25092;DHT22;13082;52.374;4.946;2023-03-01T11:21:53;8.40;99.90
25092;DHT22;13082;52.374;4.946;2023-03-01T11:24:29;8.40;99.90
25092;DHT22;13082;52.374;4.946;2023-03-01T11:26:56;8.50;99.90
25092;DHT22;13082;52.374;4.946;2023-03-01T11:29:35;8.50;99.90
25092;DHT22;13082;52.374;4.946;2023-03-01T11:32:06;8.50;99.90
25092;DHT22;13082;52.374;4.946;2023-03-01T11:34:47;8.60;99.90
25092;DHT22;13082;52.374;4.946;2023-03-01T11:39:52;8.60;99.90
25092;DHT22;13082;52.374;4.946;2023-03-01T11:42:24;8.60;99.90
25092;DHT22;13082;52.374;4.946;2023-03-01T11:44:55;8.70;99.90
25092;DHT22;13082;52.374;4.946;2023-03-01T11:50:42;8.70;99.90
25092;DHT22;13082;52.374;4.946;2023-03-01T11:53:30;8.80;99.90
25092;DHT22;13082;52.374;4.946;2023-03-01T11:59:23;9.00;99.90
25092;DHT22;13082;52.374;4.946;2023-03-01T12:07:39;9.10;99.90
25092;DHT22;13082;52.374;4.946;2023-03-01T12:10:26;9.10;99.90
25092;DHT22;13082;52.374;4.946;2023-03-01T12:13:08;9.10;99.90
25092;DHT22;13082;52.374;4.946;2023-03-01T12:16:07;9.10;99.90
25092;DHT22;13082;52.374;4.946;2023-03-01T12:27:12;9.30;99.90
25092;DHT22;13082;52.374;4.946;2023-03-01T12:30:10;9.30;99.90
25092;DHT22;13082;52.374;4.946;2023-03-01T12:46:10;9.40;99.90
25092;DHT22;13082;52.374;4.946;2023-03-01T12:51:34;9.50;99.90
25092;DHT22;13082;52.374;4.946;2023-03-01T12:54:07;9.50;99.90
25092;DHT22;13082;52.374;4.946;2023-03-01T12:56:37;9.50;99.90
25092;DHT22;13082;52.374;4.946;2023-03-01T12:59:15;9.40;99.90
25092;DHT22;13082;52.374;4.946;2023-03-01T13:01:52;9.40;99.90
25092;DHT22;13082;52.374;4.946;2023-03-01T13:04:31;9.40;99.90
25092;DHT22;13082;52.374;4.946;2023-03-01T13:07:21;9.40;99.90
25092;DHT22;13082;52.374;4.946;2023-03-01T13:15:34;9.40;99.90
25092;DHT22;13082;52.374;4.946;2023-03-01T13:20:58;9.40;99.90
25092;DHT22;13082;52.374;4.946;2023-03-01T13:23:28;9.40;99.90
25092;DHT22;13082;52.374;4.946;2023-03-01T13:26:14;9.40;99.90
25092;DHT22;13082;52.374;4.946;2023-03-01T13:33:48;9.40;99.90
25092;DHT22;13082;52.374;4.946;2023-03-01T13:36:47;9.40;99.90
25092;DHT22;13082;52.374;4.946;2023-03-01T13:39:30;9.30;99.90
25092;DHT22;13082;52.374;4.946;2023-03-01T13:41:59;9.30;99.90
25092;DHT22;13082;52.374;4.946;2023-03-01T13:44:38;9.30;99.90
25092;DHT22;13082;52.374;4.946;2023-03-01T13:49:57;9.50;99.90
25092;DHT22;13082;52.374;4.946;2023-03-01T13:54:52;9.50;99.90
25092;DHT22;13082;52.374;4.946;2023-03-01T13:57:24;9.50;99.90
25092;DHT22;13082;52.374;4.946;2023-03-01T13:59:51;9.50;99.90
25092;DHT22;13082;52.374;4.946;2023-03-01T14:02:16;9.50;99.90
25092;DHT22;13082;52.374;4.946;2023-03-01T14:04:42;9.50;99.90
25092;DHT22;13082;52.374;4.946;2023-03-01T14:07:22;9.50;99.90
25092;DHT22;13082;52.374;4.946;2023-03-01T14:09:54;9.50;99.90
25092;DHT22;13082;52.374;4.946;2023-03-01T14:15:14;9.50;99.90
25092;DHT22;13082;52.374;4.946;2023-03-01T14:20:27;9.40;99.90
25092;DHT22;13082;52.374;4.946;2023-03-01T14:22:56;9.30;99.90
25092;DHT22;13082;52.374;4.946;2023-03-01T14:25:26;9.20;99.90
25092;DHT22;13082;52.374;4.946;2023-03-01T14:28:02;9.20;99.90
25092;DHT22;13082;52.374;4.946;2023-03-01T14:30:41;9.20;99.90
25092;DHT22;13082;52.374;4.946;2023-03-01T14:35:53;9.20;99.90
25092;DHT22;13082;52.374;4.946;2023-03-01T14:41:16;9.20;99.90
25092;DHT22;13082;52.374;4.946;2023-03-01T14:44:35;9.20;99.90
25092;DHT22;13082;52.374;4.946;2023-03-01T14:46:37;9.10;99.90
25092;DHT22;13082;52.374;4.946;2023-03-01T14:54:24;9.10;99.90
25092;DHT22;13082;52.374;4.946;2023-03-01T14:56:52;9.10;99.90
25092;DHT22;13082;52.374;4.946;2023-03-01T14:59:23;9.20;99.90
25092;DHT22;13082;52.374;4.946;2023-03-01T15:01:51;9.20;99.90
25092;DHT22;13082;52.374;4.946;2023-03-01T15:04:18;9.10;99.90
25092;DHT22;13082;52.374;4.946;2023-03-01T15:06:45;9.00;99.90
25092;DHT22;13082;52.374;4.946;2023-03-01T15:09:15;9.00;99.90
25092;DHT22;13082;52.374;4.946;2023-03-01T15:11:42;9.00;99.90
25092;DHT22;13082;52.374;4.946;2023-03-01T15:14:40;9.00;99.90
25092;DHT22;13082;52.374;4.946;2023-03-01T15:19:51;9.10;99.90
25092;DHT22;13082;52.374;4.946;2023-03-01T15:22:17;9.00;99.90
25092;DHT22;13082;52.374;4.946;2023-03-01T15:24:49;9.00;99.90
25092;DHT22;13082;52.374;4.946;2023-03-01T15:27:21;9.00;99.90
25092;DHT22;13082;52.374;4.946;2023-03-01T15:29:53;9.00;99.90
25092;DHT22;13082;52.374;4.946;2023-03-01T15:34:59;9.00;99.90
25092;DHT22;13082;52.374;4.946;2023-03-01T15:37:46;9.00;99.90
25092;DHT22;13082;52.374;4.946;2023-03-01T15:40:27;9.00;99.90
25092;DHT22;13082;52.374;4.946;2023-03-01T15:43:03;9.00;99.90
25092;DHT22;13082;52.374;4.946;2023-03-01T15:45:30;8.90;99.90
25092;DHT22;13082;52.374;4.946;2023-03-01T15:48:24;8.90;99.90
25092;DHT22;13082;52.374;4.946;2023-03-01T15:50:58;8.80;99.90
25092;DHT22;13082;52.374;4.946;2023-03-01T15:53:26;8.80;99.90
25092;DHT22;13082;52.374;4.946;2023-03-01T15:55:53;8.80;99.90
25092;DHT22;13082;52.374;4.946;2023-03-01T15:58:25;8.70;99.90
25092;DHT22;13082;52.374;4.946;2023-03-01T16:00:51;8.60;99.90
25092;DHT22;13082;52.374;4.946;2023-03-01T16:03:22;8.60;99.90
25092;DHT22;13082;52.374;4.946;2023-03-01T16:05:49;8.60;99.90
25092;DHT22;13082;52.374;4.946;2023-03-01T16:08:16;8.50;99.90
25092;DHT22;13082;52.374;4.946;2023-03-01T16:10:42;8.40;99.90
25092;DHT22;13082;52.374;4.946;2023-03-01T16:13:12;8.40;99.90
25092;DHT22;13082;52.374;4.946;2023-03-01T16:15:38;8.40;99.90
25092;DHT22;13082;52.374;4.946;2023-03-01T16:18:05;8.30;99.90
25092;DHT22;13082;52.374;4.946;2023-03-01T16:20:32;8.30;99.90
25092;DHT22;13082;52.374;4.946;2023-03-01T16:22:59;8.30;99.90
25092;DHT22;13082;52.374;4.946;2023-03-01T16:25:29;8.20;99.90
25092;DHT22;13082;52.374;4.946;2023-03-01T16:27:54;8.20;99.90
25092;DHT22;13082;52.374;4.946;2023-03-01T16:30:22;8.10;99.90
25092;DHT22;13082;52.374;4.946;2023-03-01T16:32:49;8.10;99.90
25092;DHT22;13082;52.374;4.946;2023-03-01T16:35:17;8.00;99.90
25092;DHT22;13082;52.374;4.946;2023-03-01T16:37:44;7.90;99.90
25092;DHT22;13082;52.374;4.946;2023-03-01T16:40:23;7.90;99.90
25092;DHT22;13082;52.374;4.946;2023-03-01T16:42:50;8.00;99.90
25092;DHT22;13082;52.374;4.946;2023-03-01T16:45:16;7.90;99.90
25092;DHT22;13082;52.374;4.946;2023-03-01T16:47:42;7.80;99.90
25092;DHT22;13082;52.374;4.946;2023-03-01T16:50:08;7.80;99.90
25092;DHT22;13082;52.374;4.946;2023-03-01T16:52:34;7.70;99.90
25092;DHT22;13082;52.374;4.946;2023-03-01T16:55:00;7.60;99.90
25092;DHT22;13082;52.374;4.946;2023-03-01T16:57:27;7.60;99.90
25092;DHT22;13082;52.374;4.946;2023-03-01T16:59:52;7.50;99.90
25092;DHT22;13082;52.374;4.946;2023-03-01T17:02:21;7.50;99.90
25092;DHT22;13082;52.374;4.946;2023-03-01T17:04:56;7.40;99.90
25092;DHT22;13082;52.374;4.946;2023-03-01T17:07:22;7.40;99.90
25092;DHT22;13082;52.374;4.946;2023-03-01T17:09:48;7.40;99.90
25092;DHT22;13082;52.374;4.946;2023-03-01T17:12:14;7.30;99.90
25092;DHT22;13082;52.374;4.946;2023-03-01T17:14:42;7.30;99.90
25092;DHT22;13082;52.374;4.946;2023-03-01T17:17:09;7.20;99.90
25092;DHT22;13082;52.374;4.946;2023-03-01T17:19:35;7.10;99.90
25092;DHT22;13082;52.374;4.946;2023-03-01T17:22:05;7.10;99.90
25092;DHT22;13082;52.374;4.946;2023-03-01T17:24:38;7.00;99.90
25092;DHT22;13082;52.374;4.946;2023-03-01T17:27:05;7.10;99.90
25092;DHT22;13082;52.374;4.946;2023-03-01T17:29:30;7.00;99.90
25092;DHT22;13082;52.374;4.946;2023-03-01T17:31:57;7.00;99.90
25092;DHT22;13082;52.374;4.946;2023-03-01T17:34:23;6.90;99.90
25092;DHT22;13082;52.374;4.946;2023-03-01T17:36:49;6.90;99.90
25092;DHT22;13082;52.374;4.946;2023-03-01T17:39:17;6.80;99.90
25092;DHT22;13082;52.374;4.946;2023-03-01T17:41:45;6.80;99.90
25092;DHT22;13082;52.374;4.946;2023-03-01T17:44:10;6.80;99.90
25092;DHT22;13082;52.374;4.946;2023-03-01T17:46:36;6.80;99.90
25092;DHT22;13082;52.374;4.946;2023-03-01T17:49:02;6.90;99.90
25092;DHT22;13082;52.374;4.946;2023-03-01T17:51:28;6.80;99.90
25092;DHT22;13082;52.374;4.946;2023-03-01T17:53:53;6.80;99.90
25092;DHT22;13082;52.374;4.946;2023-03-01T17:56:19;6.80;99.90
25092;DHT22;13082;52.374;4.946;2023-03-01T17:58:44;6.80;99.90
25092;DHT22;13082;52.374;4.946;2023-03-01T18:01:15;6.80;99.90
25092;DHT22;13082;52.374;4.946;2023-03-01T18:03:42;6.80;99.90